Latest Weather Observations for Hartz Mountains

IDT60801

Issued at 5:31 pm EST Monday 6 July 2015 (issued every 30 minutes, with the page automatically refreshed every 10 minutes)

About weather observations | Map of weather stations | Latest weather observations for TAS | Other Formats
Station Details ID: 094191 Name: HARTZ MOUNTAIN (KEOGHS PIMPLE) Lat: -43.20 Lon: 146.77 Height: 831.0 m
Data from the previous 72 hours. | See also: Recent months at Hartz Mountains
Date/Time
EST
Temp
°C
App
Temp
°C
Dew
Point
Rel
Hum
%
Delta-T
°C
Wind Press
QNH
hPa
Press
MSL
hPa
Rain
since 9 am
mm
Dir
 
Spd
km/h
Gust
km/h
Spd
kts
Gust
kts
06/05:30pm -1.3 -3.5 -1.4 99 0.0 CALM 0 0 0 0 - - 0.8
06/05:00pm -0.7 -2.8 -0.8 99 0.0 CALM 0 0 0 0 - - 0.8
06/04:30pm -0.7 -2.8 -1.0 98 0.1 CALM 0 0 0 0 - - 0.8
06/04:00pm -0.8 -3.0 -1.4 96 0.2 CALM 0 0 0 0 - - 0.8
06/03:30pm -0.3 -4.9 -1.0 95 0.2 E 13 22 7 12 - - 0.8
06/03:00pm -0.2 -2.6 -0.5 98 0.1 SE 2 22 1 12 - - 0.8
06/02:30pm -0.4 -5.3 -0.7 98 0.1 SE 15 30 8 16 - - 0.8
06/02:00pm 0.3 -4.2 -0.3 96 0.2 ESE 13 17 7 9 - - 0.4
06/01:30pm -0.1 -6.3 -0.4 98 0.1 ESE 22 30 12 16 - - 0.4
06/01:00pm 0.3 -4.9 0.0 98 0.1 ESE 17 26 9 14 - - 0.4
06/12:30pm 0.3 -5.3 -0.3 96 0.2 ESE 19 28 10 15 - - 0.2
06/12:00pm 0.0 -5.7 -0.4 97 0.2 ESE 19 26 10 14 - - 0.2
06/11:30am 0.8 -4.0 0.2 96 0.2 ESE 15 24 8 13 - - 0.2
06/11:00am 0.1 -5.7 -0.3 97 0.2 ESE 20 32 11 17 - - 0.2
06/10:30am -0.2 -4.0 -0.5 98 0.1 ESE 9 24 5 13 - - 0.2
06/10:00am -0.2 -4.3 -0.3 99 0.0 SE 11 30 6 16 - - 0.2
06/09:30am -0.5 -2.6 -0.6 99 0.0 CALM 0 0 0 0 - - 0.2
06/09:00am -0.6 -2.7 -0.7 99 0.0 CALM 0 0 0 0 - - 0.2
06/08:30am -1.5 -3.7 -1.8 98 0.0 CALM 0 0 0 0 - - 0.2
06/08:00am -1.8 -4.0 -1.9 99 0.0 CALM 0 0 0 0 - - 0.2
06/07:30am -1.5 -3.7 -1.5 100 0.0 CALM 0 0 0 0 - - 0.2
06/07:00am -1.4 -3.6 -1.4 100 0.0 CALM 0 0 0 0 - - 0.2
06/06:30am -1.2 -3.4 -1.2 100 0.0 CALM 0 0 0 0 - - 0.2
06/06:00am -0.8 -2.9 -0.8 100 0.0 CALM 0 0 0 0 - - 0.2
06/05:30am -0.8 -2.9 -0.8 100 0.0 CALM 0 0 0 0 - - 0.2
06/05:00am -0.6 -2.7 -0.6 100 0.0 CALM 0 0 0 0 - - 0.2
06/04:30am -0.6 -2.7 -0.6 100 0.0 CALM 0 0 0 0 - - 0.2
06/04:00am -0.5 -2.6 -0.5 100 0.0 CALM 0 0 0 0 - - 0.2
06/03:30am -0.3 -2.3 -0.3 100 0.0 CALM 0 0 0 0 - - 0.2
06/03:00am -0.3 -5.6 -0.3 100 0.0 SE 17 24 9 13 - - 0.2
06/02:30am -0.2 -5.1 -0.2 100 0.0 SE 15 20 8 11 - - 0.2
06/02:00am -0.1 -4.6 -0.1 100 0.0 SE 13 19 7 10 - - 0.2
06/01:30am -0.1 -4.6 -0.1 100 0.0 SE 13 17 7 9 - - 0.2
06/01:00am -0.1 -4.9 -0.1 100 0.0 SE 15 19 8 10 - - 0.2
06/12:30am -0.2 -5.1 -0.2 100 0.0 SE 15 20 8 11 - - 0.2
06/12:00am -0.1 -4.6 -0.1 100 0.0 SE 13 19 7 10 - - 0.2
 
Date/Time
EST
Temp
°C
App
Temp
°C
Dew
Point
Rel
Hum
%
Delta-T
°C
Wind Press
QNH
hPa
Press
MSL
hPa
Rain
since 9 am
mm
Dir
 
Spd
km/h
Gust
km/h
Spd
kts
Gust
kts
05/11:30pm 0.2 -4.2 0.2 100 0.0 SE 13 20 7 11 - - 0.2
05/11:00pm 0.6 -4.1 0.6 100 0.0 SE 15 19 8 10 - - 0.0
05/10:30pm 0.7 -2.9 0.7 100 0.0 ESE 9 15 5 8 - - 0.0
05/10:00pm 0.7 -3.3 0.6 99 0.0 SE 11 13 6 7 - - 0.0
05/09:30pm 0.8 -2.8 0.7 99 0.0 SE 9 11 5 6 - - 0.0
05/09:00pm 0.8 -2.2 0.5 98 0.1 ESE 6 7 3 4 - - 0.0
05/08:30pm 1.1 -0.8 0.8 98 0.1 CALM 0 7 0 4 - - 0.0
05/08:00pm 0.8 -1.1 0.5 98 0.1 CALM 0 0 0 0 - - 0.0
05/07:30pm 0.9 -1.0 0.5 97 0.2 CALM 0 0 0 0 - - 0.0
05/07:00pm 1.2 -1.8 0.8 97 0.2 ENE 6 9 3 5 - - 0.0
05/06:30pm 0.9 -2.3 0.6 98 0.1 SW 7 9 4 5 - - 0.0
05/06:00pm 1.2 -1.4 0.9 98 0.1 SSE 4 7 2 4 - - 0.0
05/05:30pm 1.5 -1.6 1.1 97 0.2 ESE 7 9 4 5 - - 0.0
05/05:00pm 1.7 -0.6 0.7 93 0.4 ESE 2 7 1 4 - - 0.0
05/04:30pm 2.1 0.3 0.9 92 0.5 CALM 0 0 0 0 - - 0.0
05/04:00pm 2.8 0.2 1.0 88 0.7 WSW 4 9 2 5 - - 0.0
05/03:30pm 3.0 -0.5 1.4 89 0.7 W 9 13 5 7 - - 0.0
05/03:00pm 3.2 0.5 0.4 82 1.1 SSW 4 9 2 5 - - 0.0
05/02:30pm 3.1 -0.1 1.0 86 0.8 SSW 7 9 4 5 - - 0.0
05/02:00pm 3.4 0.3 1.4 87 0.8 W 7 11 4 6 - - 0.0
05/01:30pm 3.5 -0.7 1.7 88 0.7 WSW 13 19 7 10 - - 0.0
05/01:00pm 4.0 -0.9 1.9 86 0.9 WSW 17 26 9 14 - - 0.0
05/12:30pm 3.1 -2.5 1.2 87 0.8 WSW 20 28 11 15 - - 0.0
05/12:00pm 2.6 -2.9 0.7 87 0.8 WSW 19 28 10 15 - - 0.0
05/11:30am 3.3 -2.3 1.5 88 0.7 WSW 20 28 11 15 - - 0.0
05/11:00am 2.8 -3.2 1.3 90 0.6 WSW 22 28 12 15 - - 0.0
05/10:30am 2.5 -3.2 0.7 88 0.7 W 20 28 11 15 - - 0.0
05/10:00am 2.2 -3.5 0.7 90 0.6 WSW 20 28 11 15 - - 0.0
05/09:30am 1.7 -4.0 0.8 94 0.4 WSW 20 32 11 17 - - 0.0
05/09:00am 1.6 -4.9 0.6 93 0.4 WSW 24 33 13 18 - - 1.2
05/08:30am 1.5 -6.0 0.9 96 0.2 WSW 30 41 16 22 - - 1.2
05/08:00am 1.5 -6.5 0.6 94 0.4 WSW 32 43 17 23 - - 1.2
05/07:30am 1.2 -6.8 0.5 95 0.3 WSW 32 41 17 22 - - 1.2
05/07:00am 1.5 -7.0 0.6 94 0.4 W 35 46 19 25 - - 1.2
05/06:30am 1.4 -6.2 0.8 96 0.2 WSW 30 37 16 20 - - 1.2
05/06:00am 1.5 -5.6 1.4 99 0.0 WSW 28 39 15 21 - - 1.2
05/05:30am 1.6 -4.7 1.6 100 0.0 W 24 35 13 19 - - 1.2
05/05:00am 1.6 -5.1 1.6 100 0.0 WNW 26 39 14 21 - - 1.2
05/04:30am 1.5 -4.4 1.5 100 0.0 WNW 22 35 12 19 - - 1.0
05/04:00am 1.5 -6.0 1.5 100 0.0 WNW 30 43 16 23 - - 1.0
05/03:30am 1.6 -5.5 1.5 99 0.0 WNW 28 43 15 23 - - 1.0
05/03:00am 1.6 -4.0 1.5 99 0.0 W 20 33 11 18 - - 0.8
05/02:30am 1.7 -3.6 1.6 99 0.0 W 19 32 10 17 - - 0.2
05/02:00am 1.7 -4.2 1.4 98 0.1 WNW 22 33 12 18 - - 0.2
05/01:30am 1.7 -4.2 1.4 98 0.1 WNW 22 32 12 17 - - 0.2
05/01:15am 1.7 -5.4 1.3 97 0.2 WNW 28 46 15 25 - - 0.2
05/01:00am 1.6 -4.7 1.3 98 0.1 WNW 24 33 13 18 - - 0.2
05/12:30am 1.6 -5.1 1.2 97 0.2 WNW 26 35 14 19 - - 0.2
05/12:00am 1.6 -5.6 1.0 96 0.2 WNW 28 37 15 20 - - 0.2
 
Date/Time
EST
Temp
°C
App
Temp
°C
Dew
Point
Rel
Hum
%
Delta-T
°C
Wind Press
QNH
hPa
Press
MSL
hPa
Rain
since 9 am
mm
Dir
 
Spd
km/h
Gust
km/h
Spd
kts
Gust
kts
04/11:30pm 1.6 -5.6 0.9 95 0.3 WNW 28 43 15 23 - - 0.2
04/11:00pm 1.6 -5.6 0.7 94 0.4 WNW 28 46 15 25 - - 0.2
04/10:59pm 1.6 -5.6 0.7 94 0.4 WNW 28 46 15 25 - - 0.2
04/10:30pm 1.5 -4.5 0.9 96 0.2 WNW 22 37 12 20 - - 0.2
04/10:00pm 1.5 -4.9 0.8 95 0.3 WNW 24 37 13 20 - - 0.2
04/09:30pm 1.5 -4.5 0.9 96 0.2 WNW 22 35 12 19 - - 0.2
04/09:00pm 1.4 -5.0 0.7 95 0.3 NW 24 43 13 23 - - 0.2
04/08:30pm 1.5 -4.5 0.8 95 0.3 WNW 22 35 12 19 - - 0.2
04/08:00pm 1.5 -4.5 0.9 96 0.2 WNW 22 39 12 21 - - 0.2
04/07:30pm 1.5 -5.6 1.1 97 0.2 WNW 28 46 15 25 - - 0.2
04/07:00pm 1.6 -6.3 1.0 96 0.2 WNW 32 48 17 26 - - 0.2
04/06:51pm 1.7 -5.5 0.8 94 0.4 W 28 46 15 25 - - 0.2
04/06:30pm 1.6 -6.5 0.7 94 0.4 WNW 33 44 18 24 - - 0.2
04/06:00pm 1.5 -4.5 0.9 96 0.2 W 22 37 12 20 - - 0.2
04/05:30pm 1.5 -3.2 0.6 94 0.4 WNW 15 30 8 16 - - 0.2
04/05:00pm 1.7 -4.7 0.8 94 0.4 WNW 24 39 13 21 - - 0.2
04/04:30pm 1.9 -5.3 0.7 92 0.5 WNW 28 46 15 25 - - 0.2
04/04:00pm 2.1 -5.2 0.3 88 0.7 WNW 28 50 15 27 - - 0.2
04/03:33pm 2.2 -5.1 0.1 86 0.8 WNW 28 63 15 34 - - 0.2
04/03:30pm 2.3 -4.6 0.0 85 0.9 WNW 26 43 14 23 - - 0.2
04/03:00pm 2.4 -5.6 0.1 85 0.9 W 32 54 17 29 - - 0.2
04/02:30pm 2.7 -7.9 0.6 86 0.8 W 46 72 25 39 - - 0.2
04/02:00pm 3.1 -7.2 0.5 83 1.0 W 44 70 24 38 - - 0.2
04/01:30pm 3.1 -7.1 0.8 85 0.9 W 44 74 24 40 - - 0.2
04/01:00pm 3.1 -6.5 1.2 87 0.8 W 41 65 22 35 - - 0.2
04/12:30pm 3.0 -6.6 1.2 88 0.7 W 41 70 22 38 - - 0.2
04/12:00pm 3.0 -5.8 1.2 88 0.7 W 37 63 20 34 - - 0.2
04/11:30am 2.9 -6.0 0.8 86 0.8 W 37 69 20 37 - - 0.2
04/11:00am 3.0 -5.8 1.5 90 0.6 W 37 74 20 40 - - 0.2
04/10:30am 3.3 -5.8 2.0 91 0.5 W 39 61 21 33 - - 0.2
04/10:22am 3.2 -4.8 1.9 91 0.5 W 33 65 18 35 - - 0.2
04/10:17am 3.3 -4.6 2.0 91 0.5 W 33 65 18 35 - - 0.2
04/10:15am 3.2 -5.2 1.7 90 0.6 W 35 65 19 35 - - 0.2
04/10:00am 3.3 -6.2 1.7 89 0.7 W 41 87 22 47 - - 0.2
04/09:54am 3.3 -5.0 2.0 91 0.5 W 35 74 19 40 - - 0.2
04/09:45am 3.4 -4.3 2.4 93 0.4 W 32 50 17 27 - - 0.2
04/09:42am 3.5 -4.7 2.5 93 0.4 W 35 83 19 45 - - 0.2
04/09:31am 3.4 -3.6 2.2 92 0.5 W 28 70 15 38 - - 0.2
04/09:30am 3.5 -2.6 2.5 93 0.4 W 24 48 13 26 - - 0.2
04/09:00am 3.5 -3.4 2.5 93 0.4 W 28 65 15 35 - - 2.8
04/08:59am 3.5 -3.8 2.3 92 0.5 W 30 65 16 35 - - 2.8
04/08:32am 3.8 -3.4 2.9 94 0.4 WSW 30 59 16 32 - - 2.8
04/08:30am 3.7 -2.8 2.8 94 0.4 WSW 26 59 14 32 - - 2.8
04/08:00am 4.1 -3.0 3.4 95 0.3 W 30 61 16 33 - - 2.8
04/07:30am 4.1 -2.6 3.5 96 0.3 W 28 57 15 31 - - 2.8
04/07:00am 4.2 -3.8 3.8 97 0.2 W 35 67 19 36 - - 2.8
04/06:43am 4.4 -3.2 4.1 98 0.1 W 33 65 18 35 - - 2.8
04/06:30am 4.5 -3.4 4.4 99 0.0 W 35 67 19 36 - - 2.8
04/06:00am 4.8 -4.6 4.5 98 0.1 WSW 43 83 23 45 - - 2.8
04/05:30am 5.0 -6.8 4.9 99 0.0 WSW 56 87 30 47 - - 2.8
04/05:11am 5.1 -6.9 5.0 99 0.0 WSW 57 96 31 52 - - 2.8
04/05:00am 5.0 -4.9 5.0 100 0.0 WSW 46 104 25 56 - - 2.8
04/04:53am 5.0 -4.3 5.0 100 0.0 WSW 43 104 23 56 - - 2.8
04/04:52am 5.0 -3.5 5.0 100 0.0 WSW 39 104 21 56 - - 2.8
04/04:30am 5.2 -3.3 5.2 100 0.0 WSW 39 65 21 35 - - 2.8
04/04:16am 5.3 -1.1 5.3 100 0.0 W 28 70 15 38 - - 2.6
04/04:00am 5.2 -1.6 5.2 100 0.0 W 30 69 16 37 - - 2.4
04/03:30am 4.8 -1.7 4.8 100 0.0 WNW 28 63 15 34 - - 2.0
04/03:00am 4.8 -2.6 4.8 100 0.0 WNW 33 89 18 48 - - 1.8
04/02:53am 4.7 -2.2 4.7 100 0.0 W 30 89 16 48 - - 1.8
04/02:32am 4.3 -2.3 4.3 100 0.0 W 28 54 15 29 - - 1.6
04/02:30am 4.3 -1.5 4.3 100 0.0 W 24 50 13 27 - - 1.6
04/02:00am 3.8 -2.9 3.8 100 0.0 W 28 54 15 29 - - 1.4
04/01:51am 3.7 -4.3 3.7 100 0.0 WNW 35 69 19 37 - - 1.4
04/01:48am 3.7 -3.9 3.7 100 0.0 WNW 33 69 18 37 - - 1.4
04/01:46am 3.7 -3.4 3.7 100 0.0 WNW 30 69 16 37 - - 1.4
04/01:30am 3.6 -3.9 3.6 100 0.0 W 32 57 17 31 - - 1.4
04/01:00am 3.5 -5.3 3.5 100 0.0 WNW 39 76 21 41 - - 1.4
04/12:48am 3.5 -4.2 3.5 100 0.0 WNW 33 78 18 42 - - 1.4
04/12:30am 3.3 -4.2 3.3 100 0.0 WNW 32 54 17 29 - - 1.2
04/12:00am 3.2 -6.4 3.2 100 0.0 WNW 43 83 23 45 - - 1.0
 
Date/Time
EST
Temp
°C
App
Temp
°C
Dew
Point
Rel
Hum
%
Delta-T
°C
Wind Press
QNH
hPa
Press
MSL
hPa
Rain
since 9 am
mm
Dir
 
Spd
km/h
Gust
km/h
Spd
kts
Gust
kts
03/11:59pm 3.2 -6.4 3.2 100 0.0 WNW 43 83 23 45 - - 1.0
03/11:30pm 3.0 -6.7 3.0 100 0.0 WNW 43 61 23 33 - - 1.0
03/11:00pm 2.7 -7.0 2.7 100 0.0 W 43 72 23 39 - - 1.0
03/10:30pm 2.4 -7.6 2.4 100 0.0 WNW 44 76 24 41 - - 1.0
03/10:00pm 2.3 -9.6 2.3 100 0.0 W 54 83 29 45 - - 1.0
03/09:30pm 2.1 -9.1 2.1 100 0.0 WNW 50 76 27 41 - - 1.0
03/09:11pm 2.1 -9.8 2.1 100 0.0 WNW 54 91 29 49 - - 1.0
03/09:00pm 2.1 -9.4 2.1 100 0.0 WNW 52 72 28 39 - - 1.0
03/08:31pm 2.1 -9.1 2.1 100 0.0 WNW 50 70 27 38 - - 1.0
03/08:30pm 2.0 -9.2 2.0 100 0.0 W 50 70 27 38 - - 1.0
03/08:00pm 1.8 -6.9 1.8 100 0.0 WNW 37 72 20 39 - - 1.0
03/07:46pm 1.7 -6.3 1.7 100 0.0 WNW 33 52 18 28 - - 1.0
03/07:30pm 1.7 -6.7 1.7 100 0.0 WNW 35 50 19 27 - - 1.0
03/07:00pm 1.5 -7.7 1.5 100 0.0 WNW 39 59 21 32 - - 0.8
03/06:30pm 1.5 -8.0 1.5 100 0.0 W 41 65 22 35 - - 0.8
03/06:00pm 1.5 -9.0 1.5 100 0.0 WNW 46 65 25 35 - - 0.8
03/05:57pm 1.5 -9.4 1.5 100 0.0 W 48 65 26 35 - - 0.8
03/05:51pm 1.5 -10.1 1.4 99 0.0 W 52 74 28 40 - - 0.8

Other Formats:

Comma delimited format used in spreadsheet applications
http://www.bom.gov.au/fwo/IDT60801/IDT60801.94977.axf

JavaScript Object Notation format (JSON) in row-major order
http://www.bom.gov.au/fwo/IDT60801/IDT60801.94977.json